FPO4828 LFPG-EGHH
Flight info
| Callsign | FPO4828 |
|---|---|
| Flight time | N/A |
| Altitude | 24000 |
| Route | OPALE DCT KESAX DCT KUNAV N20 ELDAX |
| Aircraft | B738/M-SDE2E3FGHIRWXY/LB1 |
Departure
| Time | N/A |
|---|---|
| Airport | Charles de Gaulle International Airport (LFPG) |
Arrival
| Time | 2026-04-27 17:18 |
|---|---|
| Airport | Bournemouth Airport (EGHH) |
| Time | Latitude | Longitude | Altitude | Speed | Heading |
|---|---|---|---|---|---|
| 2026-04-27 17:04 | 50.77553 | -1.22263 | 8398 ft | 289 kts | 271° |
| 2026-04-27 17:04 | 50.77515 | -1.25443 | 7946 ft | 291 kts | 271° |
| 2026-04-27 17:04 | 50.77525 | -1.27611 | 7638 ft | 291 kts | 276° |
| 2026-04-27 17:04 | 50.77854 | -1.31833 | 7007 ft | 294 kts | 281° |
| 2026-04-27 17:05 | 50.78174 | -1.35033 | 6516 ft | 297 kts | 282° |
| 2026-04-27 17:05 | 50.78496 | -1.38270 | 6005 ft | 300 kts | 281° |
| 2026-04-27 17:05 | 50.78710 | -1.40481 | 5653 ft | 301 kts | 281° |
| 2026-04-27 17:05 | 50.79017 | -1.43758 | 5151 ft | 303 kts | 281° |
| 2026-04-27 17:06 | 50.79316 | -1.47031 | 4645 ft | 305 kts | 280° |
| 2026-04-27 17:06 | 50.79610 | -1.50315 | 4125 ft | 299 kts | 280° |
| 2026-04-27 17:06 | 50.79890 | -1.53492 | 3593 ft | 282 kts | 280° |
| 2026-04-27 17:06 | 50.80150 | -1.56454 | 3095 ft | 264 kts | 279° |
| 2026-04-27 17:07 | 50.80394 | -1.59253 | 2586 ft | 251 kts | 280° |
| 2026-04-27 17:07 | 50.80626 | -1.61921 | 2077 ft | 241 kts | 279° |
| 2026-04-27 17:07 | 50.80850 | -1.64497 | 1635 ft | 230 kts | 280° |
| 2026-04-27 17:07 | 50.80972 | -1.66893 | 1483 ft | 208 kts | 263° |
| 2026-04-27 17:08 | 50.80497 | -1.68893 | 1493 ft | 182 kts | 250° |
| 2026-04-27 17:08 | 50.80291 | -1.70689 | 1500 ft | 158 kts | 267° |
| 2026-04-27 17:08 | 50.79985 | -1.72357 | 1411 ft | 160 kts | 249° |
| 2026-04-27 17:08 | 50.79703 | -1.74080 | 1218 ft | 162 kts | 264° |
| 2026-04-27 17:09 | 50.79426 | -1.75712 | 1029 ft | 144 kts | 252° |
| 2026-04-27 17:09 | 50.79171 | -1.77148 | 892 ft | 129 kts | 257° |
| 2026-04-27 17:09 | 50.78967 | -1.78503 | 628 ft | 124 kts | 254° |
| 2026-04-27 17:09 | 50.78750 | -1.79809 | 425 ft | 123 kts | 254° |
| 2026-04-27 17:10 | 50.78526 | -1.81162 | 412 ft | 143 kts | 255° |
| 2026-04-27 17:10 | 50.78283 | -1.82884 | 951 ft | 181 kts | 257° |
| 2026-04-27 17:10 | 50.77975 | -1.85013 | 1636 ft | 215 kts | 259° |
| 2026-04-27 17:10 | 50.77639 | -1.87403 | 2386 ft | 231 kts | 260° |
| 2026-04-27 17:11 | 50.77287 | -1.89975 | 3036 ft | 248 kts | 260° |
| 2026-04-27 17:11 | 50.76542 | -1.95508 | 2947 ft | 256 kts | 261° |
| 2026-04-27 17:11 | 50.76517 | -1.98221 | 2972 ft | 245 kts | 285° |
| 2026-04-27 17:12 | 50.77528 | -2.03578 | 2990 ft | 259 kts | 290° |
| 2026-04-27 17:12 | 50.77916 | -2.06351 | 2970 ft | 262 kts | 271° |
| 2026-04-27 17:12 | 50.77381 | -2.09079 | 2992 ft | 266 kts | 236° |
| 2026-04-27 17:13 | 50.75938 | -2.10885 | 2995 ft | 269 kts | 200° |
| 2026-04-27 17:13 | 50.74118 | -2.11106 | 2980 ft | 263 kts | 165° |
| 2026-04-27 17:13 | 50.72611 | -2.09719 | 2970 ft | 245 kts | 127° |
| 2026-04-27 17:13 | 50.72014 | -2.07474 | 2981 ft | 205 kts | 86° |
| 2026-04-27 17:14 | 50.72465 | -2.05611 | 2982 ft | 171 kts | 41° |
| 2026-04-27 17:14 | 50.73333 | -2.04381 | 2991 ft | 166 kts | 41° |
| 2026-04-27 17:14 | 50.74150 | -2.03169 | 2993 ft | 157 kts | 40° |
| 2026-04-27 17:14 | 50.74880 | -2.01983 | 3002 ft | 143 kts | 52° |
| 2026-04-27 17:15 | 50.75214 | -2.00572 | 2876 ft | 141 kts | 73° |
| 2026-04-27 17:15 | 50.75446 | -1.99049 | 2424 ft | 141 kts | 72° |
| 2026-04-27 17:15 | 50.75720 | -1.97555 | 1907 ft | 141 kts | 68° |
| 2026-04-27 17:15 | 50.76021 | -1.96087 | 1449 ft | 139 kts | 70° |
| 2026-04-27 17:16 | 50.76271 | -1.94686 | 1257 ft | 126 kts | 71° |
| 2026-04-27 17:16 | 50.76496 | -1.93359 | 1143 ft | 127 kts | 73° |
| 2026-04-27 17:16 | 50.76721 | -1.91997 | 955 ft | 128 kts | 73° |
| 2026-04-27 17:16 | 50.76945 | -1.90644 | 767 ft | 129 kts | 75° |
| 2026-04-27 17:17 | 50.77155 | -1.89264 | 594 ft | 127 kts | 72° |
| 2026-04-27 17:17 | 50.77406 | -1.87930 | 441 ft | 128 kts | 75° |
| 2026-04-27 17:17 | 50.77627 | -1.86570 | 263 ft | 128 kts | 78° |
| 2026-04-27 17:18 | 50.78053 | -1.83991 | 42 ft | 96 kts | 75° |
| 2026-04-27 17:18 | 50.78179 | -1.83224 | 44 ft | 35 kts | 76° |
| 2026-04-27 17:18 | 50.78187 | -1.83171 | 42 ft | 0 kts | 76° |
| 2026-04-27 17:18 | 50.78200 | -1.83092 | 43 ft | 16 kts | 79° |
| 2026-04-27 17:19 | 50.78130 | -1.83078 | 45 ft | 14 kts | 236° |
| 2026-04-27 17:19 | 50.78076 | -1.83203 | 45 ft | 13 kts | 234° |
| 2026-04-27 17:19 | 50.78032 | -1.83327 | 43 ft | 13 kts | 243° |
| 2026-04-27 17:19 | 50.77990 | -1.83450 | 45 ft | 13 kts | 234° |
| 2026-04-27 17:20 | 50.77912 | -1.83488 | 45 ft | 12 kts | 171° |
| 2026-04-27 17:20 | 50.77829 | -1.83471 | 45 ft | 11 kts | 175° |
| 2026-04-27 17:20 | 50.77776 | -1.83508 | 45 ft | 8 kts | 263° |
| 2026-04-27 17:20 | 50.77775 | -1.83541 | 45 ft | 0 kts | 266° |
| 2026-04-27 17:21 | 50.77775 | -1.83549 | 45 ft | 0 kts | 266° |